Time;durP1;ratioP1;P1;durP2;ratioP2;P2;SDS_P1;SDS_P2;PMS_P1;PMS_P2;Temp;Humidity;BMP_temperature;BMP_pressure;BME280_temperature;BME280_humidity;BME280_pressure;Samples;Min_cycle;Max_cycle;Signal;HPM_P1;HPM_P2
2022/09/06 00:00:28;;;;;;;11.02;4.07;;;;;;;;;;5104019;27;20352;-79
2022/09/06 00:02:54;;;;;;;7.25;4.47;;;;;;;;;;5098996;28;20050;-81
2022/09/06 00:05:20;;;;;;;8.40;4.60;;;;;;;;;;5116252;27;20067;-83
2022/09/06 00:07:46;;;;;;;4.70;4.30;;;;;;;;;;5139482;27;20047;-81
2022/09/06 00:10:13;;;;;;;7.30;4.63;;;;;;;;;;5139297;27;20388;-81
2022/09/06 00:12:40;;;;;;;7.28;4.57;;;;;;;;;;5139332;27;20414;-82
2022/09/06 00:15:06;;;;;;;5.22;3.83;;;20.60;99.90;;;;;;5118286;27;20088;-83
2022/09/06 00:17:32;;;;;;;6.30;4.40;;;20.90;99.90;;;;;;5102230;28;20484;-84
2022/09/06 00:19:58;;;;;;;5.90;4.88;;;;;;;;;;5107570;27;20042;-83
2022/09/06 00:22:24;;;;;;;5.85;4.65;;;;;;;;;;5133282;27;20543;-84
2022/09/06 00:24:50;;;;;;;6.45;4.50;;;;;;;;;;5102207;28;20083;-83
2022/09/06 00:27:16;;;;;;;5.60;5.10;;;;;;;;;;5111748;27;20078;-84
2022/09/06 00:29:42;;;;;;;8.25;5.00;;;;;;;;;;5108937;27;20039;-83
2022/09/06 00:32:09;;;;;;;8.05;4.57;;;;;;;;;;5141283;27;20043;-82
2022/09/06 00:34:35;;;;;;;6.45;4.40;;;;;;;;;;5098597;27;20044;-83
2022/09/06 00:37:01;;;;;;;8.27;4.93;;;;;;;;;;5101127;27;20091;-84
2022/09/06 00:39:27;;;;;;;7.35;4.70;;;;;;;;;;5125796;27;20513;-84
2022/09/06 00:41:53;;;;;;;6.13;4.82;;;;;;;;;;5143248;27;20116;-84
2022/09/06 00:44:19;;;;;;;7.40;4.32;;;;;;;;;;5143051;27;20074;-83
2022/09/06 00:46:48;;;;;;;8.05;4.75;;;20.30;99.90;;;;;;5136672;27;20036;-84
2022/09/06 00:49:23;;;;;;;8.30;4.78;;;20.40;99.90;;;;;;5143157;27;20050;-84
2022/09/06 00:51:52;;;;;;;7.18;4.57;;;20.40;99.90;;;;;;5118583;27;20043;-84
2022/09/06 00:54:18;;;;;;;11.77;4.55;;;;;;;;;;5108807;27;20035;-84
2022/09/06 00:56:44;;;;;;;10.73;4.70;;;;;;;;;;5098418;27;20441;-83
2022/09/06 00:59:10;;;;;;;5.60;4.80;;;;;;;;;;5150489;27;20043;-81
2022/09/06 01:01:36;;;;;;;9.07;5.45;;;;;;;;;;5142874;27;20070;-81
2022/09/06 01:04:03;;;;;;;9.35;4.38;;;;;;;;;;5105187;28;20032;-79
2022/09/06 01:06:51;;;;;;;6.28;4.65;;;20.10;99.90;;;;;;5105616;27;20130;-79
2022/09/06 01:09:17;;;;;;;5.78;5.10;;;;;;;;;;5128677;27;20070;-80
2022/09/06 01:11:55;;;;;;;7.10;4.93;;;20.10;99.90;;;;;;5107914;27;20537;-83
2022/09/06 01:14:21;;;;;;;5.80;5.28;;;;;;;;;;5125900;27;20426;-83
2022/09/06 01:17:07;;;;;;;8.05;4.53;;;20.20;99.90;;;;;;5112518;27;20116;-84
2022/09/06 01:20:00;;;;;;;11.80;4.35;;;20.00;99.90;;;;;;5132920;27;20517;-84
2022/09/06 01:22:52;;;;;;;6.32;5.00;;;20.20;99.90;;;;;;5130297;27;20070;-84
2022/09/06 01:25:50;;;;;;;7.55;4.88;;;19.80;99.90;;;;;;5119870;27;20063;-84
2022/09/06 01:28:45;;;;;;;6.60;4.50;;;20.10;99.90;;;;;;5111221;27;20521;-84
2022/09/06 01:31:50;;;;;;;9.80;5.43;;;19.90;99.90;;;;;;5121779;27;20083;-85
2022/09/06 01:34:36;;;;;;;8.05;5.07;;;19.90;99.90;;;;;;5119166;27;20054;-83
2022/09/06 01:37:10;;;;;;;7.50;5.07;;;20.00;99.90;;;;;;5107468;27;20122;-82
2022/09/06 01:39:36;;;;;;;;;;;19.90;99.90;;;;;;5111421;27;20043;-81
2022/09/06 01:42:15;;;;;;;7.35;5.10;;;19.90;99.90;;;;;;5141787;27;19919;-80
2022/09/06 01:44:48;;;;;;;6.63;5.35;;;19.90;99.90;;;;;;5140764;27;20035;-84
2022/09/06 01:47:41;;;;;;;8.30;5.47;;;19.90;99.90;;;;;;5123978;27;20054;-82
2022/09/06 01:50:26;;;;;;;5.97;4.68;;;19.60;99.90;;;;;;5121634;27;20058;-82
2022/09/06 01:53:08;;;;;;;6.78;5.28;;;19.50;99.90;;;;;;5094273;27;20467;-79
2022/09/06 01:56:09;;;;;;;7.78;5.68;;;19.80;99.90;;;;;;5108488;27;20059;-81
2022/09/06 01:58:50;;;;;;;10.45;6.95;;;19.60;99.90;;;;;;5120552;27;20043;-82
2022/09/06 02:01:58;;;;;;;9.07;6.70;;;19.80;99.90;;;;;;5114070;27;20043;-82
2022/09/06 02:04:51;;;;;;;9.70;6.68;;;19.70;99.90;;;;;;5120366;27;20047;-82
2022/09/06 02:07:24;;;;;;;7.68;5.75;;;19.50;99.90;;;;;;5102527;27;20524;-82
2022/09/06 02:09:57;;;;;;;7.70;5.85;;;19.60;99.90;;;;;;5131372;27;20123;-82
2022/09/06 02:12:25;;;;;;;7.97;6.18;;;19.70;99.90;;;;;;5103853;28;20043;-82
2022/09/06 02:15:00;;;;;;;8.82;6.40;;;19.60;99.90;;;;;;5132337;27;20067;-82
2022/09/06 02:17:31;;;;;;;10.45;6.07;;;19.50;99.90;;;;;;5124099;27;20088;-82
2022/09/06 02:20:15;;;;;;;12.45;6.38;;;19.30;99.90;;;;;;5140239;27;20054;-82
2022/09/06 02:22:44;;;;;;;7.43;5.15;;;19.40;99.90;;;;;;5091773;28;20051;-82
2022/09/06 02:25:17;;;;;;;8.30;7.20;;;19.60;99.90;;;;;;5128146;27;20042;-84
2022/09/06 02:27:43;;;;;;;15.02;6.72;;;19.40;99.90;;;;;;5113246;27;20051;-85
2022/09/06 02:30:09;;;;;;;11.80;6.68;;;19.50;99.90;;;;;;5123294;27;20557;-84
2022/09/06 02:32:39;;;;;;;7.78;6.32;;;19.50;99.90;;;;;;5102672;27;20046;-81
2022/09/06 02:35:11;;;;;;;9.20;6.40;;;19.30;99.90;;;;;;5107403;27;20038;-84
2022/09/06 02:37:37;;;;;;;7.88;6.63;;;;;;;;;;5106384;27;20043;-85
2022/09/06 02:40:04;;;;;;;9.45;6.55;;;19.40;99.90;;;;;;5115622;27;20046;-84
2022/09/06 02:42:30;;;;;;;8.23;5.70;;;;;;;;;;5089454;27;20122;-86
2022/09/06 02:44:56;;;;;;;12.05;7.07;;;;;;;;;;5140996;27;20068;-84
2022/09/06 02:47:22;;;;;;;12.20;6.43;;;;;;;;;;5141121;27;20051;-84
2022/09/06 02:49:48;;;;;;;14.27;6.85;;;;;;;;;;5106554;27;20046;-85
2022/09/06 02:52:14;;;;;;;16.40;6.93;;;;;;;;;;5097033;27;20039;-83
2022/09/06 02:54:40;;;;;;;10.07;6.75;;;;;;;;;;5138959;27;20051;-84
2022/09/06 02:57:06;;;;;;;11.13;6.18;;;;;;;;;;5105725;27;20043;-83
2022/09/06 02:59:32;;;;;;;5.30;4.72;;;;;;;;;;5106736;28;20127;-84
2022/09/06 03:01:58;;;;;;;6.00;5.50;;;;;;;;;;5102636;27;20504;-84
2022/09/06 03:04:24;;;;;;;11.50;5.60;;;19.00;99.90;;;;;;5112052;27;20077;-84
2022/09/06 03:06:50;;;;;;;5.80;4.80;;;;;;;;;;5102884;27;20086;-83
2022/09/06 03:09:16;;;;;;;8.25;6.05;;;;;;;;;;5142498;27;20384;-83
2022/09/06 03:11:42;;;;;;;6.63;5.28;;;;;;;;;;5140984;27;20436;-84
2022/09/06 03:14:08;;;;;;;10.95;6.35;;;;;;;;;;5135301;27;20047;-82
2022/09/06 03:16:35;;;;;;;9.27;5.18;;;;;;;;;;5141351;27;20168;-84
2022/09/06 03:19:01;;;;;;;6.25;5.13;;;;;;;;;;5139860;27;20133;-79
2022/09/06 03:21:27;;;;;;;7.07;5.25;;;;;;;;;;5140056;27;20559;-83
2022/09/06 03:23:53;;;;;;;6.47;5.57;;;19.00;99.90;;;;;;5095193;28;20079;-81
2022/09/06 03:26:19;;;;;;;16.27;6.05;;;;;;;;;;5105561;27;20086;-82
2022/09/06 03:28:45;;;;;;;6.43;5.60;;;19.00;99.90;;;;;;5138227;27;20118;-80
2022/09/06 03:31:11;;;;;;;7.53;5.18;;;19.20;99.90;;;;;;5112562;27;20165;-80
2022/09/06 03:33:37;;;;;;;5.97;5.47;;;;;;;;;;5120563;27;20054;-80
2022/09/06 03:36:03;;;;;;;8.90;5.57;;;;;;;;;;5119935;27;20047;-79
2022/09/06 03:38:29;;;;;;;7.53;6.13;;;;;;;;;;5125296;27;20121;-79
2022/09/06 03:40:55;;;;;;;9.82;6.00;;;;;;;;;;5105573;27;20380;-79
2022/09/06 03:43:23;;;;;;;14.20;6.20;;;18.90;99.90;;;;;;5108844;27;20043;-79
2022/09/06 03:45:53;;;;;;;9.32;6.47;;;18.90;99.90;;;;;;5103062;27;20047;-80
2022/09/06 03:48:21;;;;;;;8.43;6.97;;;19.20;99.90;;;;;;5138924;27;20055;-78
2022/09/06 03:50:50;;;;;;;14.55;7.45;;;19.00;99.90;;;;;;5139465;27;20059;-79
2022/09/06 03:53:16;;;;;;;8.57;6.70;;;19.00;99.90;;;;;;5105544;27;20043;-78
2022/09/06 03:55:47;;;;;;;10.63;7.20;;;18.90;99.90;;;;;;5126414;27;20400;-78
2022/09/06 03:58:14;;;;;;;15.55;7.70;;;18.90;99.90;;;;;;5130830;27;20062;-78
2022/09/06 04:00:40;;;;;;;8.82;6.57;;;;;;;;;;5121067;27;20117;-78
2022/09/06 04:03:06;;;;;;;10.35;7.47;;;;;;;;;;5139340;27;20424;-80
2022/09/06 04:05:32;;;;;;;8.25;6.30;;;;;;;;;;5103511;27;20122;-80
2022/09/06 04:07:58;;;;;;;7.85;6.90;;;;;;;;;;5119480;27;20129;-82
2022/09/06 04:10:24;;;;;;;14.70;6.82;;;;;;;;;;5125436;27;20146;-82
2022/09/06 04:12:50;;;;;;;8.43;6.88;;;;;;;;;;5105387;27;20046;-81
2022/09/06 04:15:16;;;;;;;11.38;6.40;;;;;;;;;;5104858;28;20121;-81
2022/09/06 04:17:46;;;;;;;6.72;6.18;;;19.00;99.90;;;;;;5139557;27;20053;-83
2022/09/06 04:20:12;;;;;;;7.07;6.38;;;19.10;99.90;;;;;;5100198;27;20494;-82
2022/09/06 04:22:38;;;;;;;7.38;6.68;;;;;;;;;;5103255;28;20039;-79
2022/09/06 04:25:05;;;;;;;7.93;7.13;;;18.90;99.90;;;;;;5139400;27;20074;-82
2022/09/06 04:27:31;;;;;;;9.48;6.90;;;;;;;;;;5131308;28;20047;-79
2022/09/06 04:29:57;;;;;;;8.90;6.18;;;;;;;;;;5094740;28;20130;-79
2022/09/06 04:32:23;;;;;;;11.43;7.55;;;;;;;;;;5092382;28;20126;-79
2022/09/06 04:34:49;;;;;;;10.68;6.78;;;;;;;;;;5096666;27;20039;-82
2022/09/06 04:37:18;;;;;;;7.30;6.60;;;;;;;;;;5093916;28;20035;-84
2022/09/06 04:39:47;;;;;;;11.13;7.55;;;18.90;99.90;;;;;;5091715;28;20050;-82
2022/09/06 04:42:14;;;;;;;7.45;6.68;;;;;;;;;;5113463;28;20042;-85
2022/09/06 04:44:40;;;;;;;10.50;7.07;;;;;;;;;;5100624;28;20039;-83
2022/09/06 04:47:11;;;;;;;12.02;8.00;;;18.70;99.90;;;;;;5136594;27;20047;-85
2022/09/06 04:49:37;;;;;;;9.93;7.53;;;18.90;99.90;;;;;;5105882;28;20130;-82
2022/09/06 04:52:03;;;;;;;12.52;8.40;;;;;;;;;;5121312;28;20037;-80
2022/09/06 04:54:29;;;;;;;14.13;8.77;;;;;;;;;;5097984;28;20035;-84
2022/09/06 04:56:55;;;;;;;12.45;8.32;;;;;;;;;;5127270;28;20710;-83
2022/09/06 04:59:21;;;;;;;14.07;7.93;;;;;;;;;;5085611;28;20062;-82
2022/09/06 05:01:47;;;;;;;10.57;8.00;;;;;;;;;;5122831;27;20054;-82
2022/09/06 05:04:13;;;;;;;10.00;8.35;;;;;;;;;;5088356;27;20503;-85
2022/09/06 05:06:40;;;;;;;11.77;8.85;;;;;;;;;;5142031;27;20403;-85
2022/09/06 05:09:07;;;;;;;14.13;8.93;;;;;;;;;;5121385;28;20055;-85
2022/09/06 05:11:33;;;;;;;12.32;8.63;;;;;;;;;;5104931;28;20043;-83
2022/09/06 05:13:59;;;;;;;8.85;7.38;;;;;;;;;;5141561;27;20402;-84
2022/09/06 05:16:25;;;;;;;9.13;8.23;;;;;;;;;;5142124;27;20038;-82
2022/09/06 05:18:51;;;;;;;11.27;8.55;;;;;;;;;;5134333;27;20446;-82
2022/09/06 05:21:17;;;;;;;11.20;8.45;;;;;;;;;;5135064;27;20483;-81
2022/09/06 05:23:43;;;;;;;10.10;9.05;;;;;;;;;;5098738;27;20092;-84
2022/09/06 05:26:09;;;;;;;14.70;8.38;;;;;;;;;;5106549;27;20039;-84
2022/09/06 05:28:36;;;;;;;11.65;8.13;;;;;;;;;;5125246;27;20047;-82
2022/09/06 05:31:27;;;;;;;12.55;7.78;;;18.50;99.90;;;;;;5094125;27;20440;-83
2022/09/06 05:33:53;;;;;;;11.70;8.48;;;;;;;;;;5107711;27;20108;-82
2022/09/06 05:36:22;;;;;;;10.48;8.27;;;;;;;;;;5139122;27;20043;-83
2022/09/06 05:38:49;;;;;;;11.80;9.98;;;18.30;99.90;;;;;;5128510;27;20039;-84
2022/09/06 05:41:15;;;;;;;9.60;8.70;;;;;;;;;;5130932;27;20510;-83
2022/09/06 05:43:41;;;;;;;10.35;8.90;;;;;;;;;;5128399;27;20047;-81
2022/09/06 05:46:07;;;;;;;10.82;9.30;;;18.50;99.90;;;;;;5131781;27;20051;-83
2022/09/06 05:48:34;;;;;;;11.63;9.52;;;;;;;;;;5123192;27;20134;-83
2022/09/06 05:51:08;;;;;;;13.77;9.98;;;18.50;99.90;;;;;;5105073;27;20047;-81
2022/09/06 05:53:38;;;;;;;10.55;9.52;;;18.40;99.90;;;;;;5104453;27;20559;-81
2022/09/06 05:56:05;;;;;;;10.95;9.95;;;18.40;99.90;;;;;;5101982;27;20548;-82
2022/09/06 05:58:31;;;;;;;12.70;10.80;;;;;;;;;;5136140;27;20096;-81
2022/09/06 06:01:25;;;;;;;10.85;9.75;;;17.90;99.90;;;;;;5121264;27;20488;-81
2022/09/06 06:03:56;;;;;;;18.90;10.55;;;18.30;99.90;;;;;;5099949;28;20404;-82
2022/09/06 06:06:22;;;;;;;12.60;10.25;;;;;;;;;;5122992;27;20130;-80
2022/09/06 06:08:48;;;;;;;14.15;10.20;;;18.10;99.90;;;;;;5100738;27;20047;-80
2022/09/06 06:11:14;;;;;;;14.77;10.32;;;;;;;;;;5107471;27;20398;-82
2022/09/06 06:13:41;;;;;;;17.40;10.35;;;18.30;99.90;;;;;;5104666;27;20290;-82
2022/09/06 06:16:13;;;;;;;14.95;10.35;;;18.40;99.90;;;;;;5102746;27;20053;-82
2022/09/06 06:18:40;;;;;;;11.82;10.45;;;;;;;;;;5102153;27;20092;-83
2022/09/06 06:21:14;;;;;;;12.68;9.85;;;18.10;99.90;;;;;;5101036;27;20035;-82
2022/09/06 06:23:41;;;;;;;10.85;9.80;;;18.50;99.90;;;;;;5123426;27;20043;-82
2022/09/06 06:26:08;;;;;;;14.35;10.48;;;18.30;99.90;;;;;;5106454;27;20028;-81
2022/09/06 06:28:35;;;;;;;17.17;12.18;;;18.50;99.90;;;;;;5131599;27;20096;-82
2022/09/06 06:31:02;;;;;;;15.60;11.25;;;18.40;99.90;;;;;;5118619;27;20043;-82
2022/09/06 06:33:28;;;;;;;12.02;10.82;;;;;;;;;;5106857;27;20462;-82
2022/09/06 06:36:03;;;;;;;15.50;11.73;;;18.40;99.90;;;;;;5127540;27;20487;-83
2022/09/06 06:38:41;;;;;;;12.70;11.48;;;18.60;99.90;;;;;;5105808;27;20039;-82
2022/09/06 06:41:08;;;;;;;14.23;11.23;;;18.40;99.90;;;;;;5105903;27;20503;-82
2022/09/06 06:43:37;;;;;;;17.30;11.48;;;18.50;99.90;;;;;;5100054;27;20058;-81
2022/09/06 06:46:11;;;;;;;12.98;11.30;;;18.60;99.90;;;;;;5122912;27;20043;-83
2022/09/06 06:48:40;;;;;;;13.23;11.73;;;18.70;99.90;;;;;;5105815;27;20082;-84
2022/09/06 06:51:07;;;;;;;15.00;11.52;;;18.60;99.90;;;;;;5123873;27;20445;-84
2022/09/06 06:53:34;;;;;;;12.57;10.02;;;18.70;99.90;;;;;;5122573;27;20524;-82
2022/09/06 06:56:00;;;;;;;17.58;12.27;;;;;;;;;;5122215;27;20099;-84
2022/09/06 06:58:26;;;;;;;17.10;11.15;;;;;;;;;;5139871;27;20064;-84
2022/09/06 07:00:52;;;;;;;12.52;10.77;;;;;;;;;;5118598;27;20036;-84
2022/09/06 07:03:18;;;;;;;13.10;11.80;;;;;;;;;;5115131;27;20534;-85
2022/09/06 07:05:46;;;;;;;15.70;12.02;;;;;;;;;;5132694;27;20042;-85
2022/09/06 07:08:12;;;;;;;14.23;11.88;;;;;;;;;;5099849;27;20054;-82
2022/09/06 07:10:38;;;;;;;18.10;12.48;;;;;;;;;;5106366;27;20395;-84
2022/09/06 07:13:04;;;;;;;15.57;11.88;;;;;;;;;;5122076;27;20126;-84
2022/09/06 07:15:30;;;;;;;13.70;11.05;;;;;;;;;;5101410;27;20039;-84
2022/09/06 07:17:57;;;;;;;16.05;11.35;;;;;;;;;;5125095;27;20043;-84
2022/09/06 07:20:25;;;;;;;13.07;11.65;;;18.90;99.90;;;;;;5105769;27;20111;-85
2022/09/06 07:23:03;;;;;;;12.25;10.93;;;19.10;99.90;;;;;;5108850;27;20066;-84
2022/09/06 07:25:29;;;;;;;12.77;11.35;;;;;;;;;;5083381;28;20054;-83
2022/09/06 07:28:05;;;;;;;14.73;11.73;;;19.00;99.90;;;;;;5094683;27;20047;-85
2022/09/06 07:30:38;;;;;;;27.67;11.80;;;18.90;99.90;;;;;;5121034;27;20384;-82
2022/09/06 07:33:04;;;;;;;20.80;12.25;;;;;;;;;;5104188;27;20035;-82
2022/09/06 07:35:30;;;;;;;16.95;11.63;;;19.00;99.90;;;;;;5126802;27;20038;-84
2022/09/06 07:37:58;;;;;;;14.88;11.90;;;18.90;99.90;;;;;;5117656;27;20051;-84
2022/09/06 07:40:29;;;;;;;12.88;11.13;;;18.90;99.90;;;;;;5097788;27;20615;-83
2022/09/06 07:42:58;;;;;;;12.07;10.18;;;19.00;99.90;;;;;;5105607;27;20085;-84
2022/09/06 07:45:24;;;;;;;11.38;10.25;;;;;;;;;;5121517;27;20047;-83
2022/09/06 07:47:55;;;;;;;14.35;11.52;;;19.10;99.90;;;;;;5100080;27;20043;-85
2022/09/06 07:50:21;;;;;;;12.80;11.00;;;19.10;99.90;;;;;;5130432;27;20054;-82
2022/09/06 07:52:47;;;;;;;13.05;10.90;;;;;;;;;;5101014;28;20399;-84
2022/09/06 07:55:13;;;;;;;15.27;11.65;;;;;;;;;;5136809;27;20388;-83
2022/09/06 07:57:39;;;;;;;11.40;10.20;;;;;;;;;;5136859;27;20071;-82
2022/09/06 08:00:05;;;;;;;15.90;11.57;;;19.50;99.90;;;;;;5138421;27;20035;-82
2022/09/06 08:02:31;;;;;;;13.88;11.60;;;;;;;;;;5121661;27;20039;-82
2022/09/06 08:04:57;;;;;;;13.52;10.40;;;19.70;99.90;;;;;;5121995;27;20096;-84
2022/09/06 08:07:23;;;;;;;16.60;10.77;;;;;;;;;;5099875;27;20039;-83
2022/09/06 08:09:50;;;;;;;11.57;10.48;;;;;;;;;;5104279;28;20491;-85
2022/09/06 08:12:16;;;;;;;11.95;10.68;;;;;;;;;;5132665;27;20103;-83
2022/09/06 08:14:42;;;;;;;14.63;12.35;;;;;;;;;;5121290;27;20047;-85
2022/09/06 08:17:08;;;;;;;12.30;10.45;;;;;;;;;;5101670;28;20047;-83
2022/09/06 08:19:34;;;;;;;12.27;11.07;;;;;;;;;;5138068;27;20543;-84
2022/09/06 08:22:01;;;;;;;13.05;11.75;;;;;;;;;;5137862;27;20047;-84
2022/09/06 08:24:27;;;;;;;12.07;10.10;;;;;;;;;;5118771;28;20047;-84
2022/09/06 08:26:53;;;;;;;16.88;12.52;;;;;;;;;;5104688;28;20054;-84
2022/09/06 08:29:19;;;;;;;15.27;11.35;;;;;;;;;;5134721;27;20047;-84
2022/09/06 08:31:45;;;;;;;13.35;10.65;;;;;;;;;;5121666;28;20047;-84
2022/09/06 08:34:13;;;;;;;16.40;11.35;;;20.80;99.90;;;;;;5104310;28;20047;-84
2022/09/06 08:36:39;;;;;;;12.50;10.45;;;;;;;;;;5104603;28;20039;-83
2022/09/06 08:39:07;;;;;;;13.80;11.07;;;21.00;99.90;;;;;;5099078;28;20043;-84
2022/09/06 08:41:47;;;;;;;12.18;10.90;;;21.00;99.90;;;;;;5096534;28;20054;-84
2022/09/06 08:44:25;;;;;;;14.98;10.38;;;20.90;99.90;;;;;;5104856;28;20065;-84
2022/09/06 08:47:12;;;;;;;12.15;11.05;;;21.10;99.90;;;;;;5105018;27;20055;-82
2022/09/06 08:49:44;;;;;;;11.98;10.80;;;21.20;99.90;;;;;;5118861;27;20123;-83
2022/09/06 08:52:19;;;;;;;13.02;10.48;;;21.30;99.90;;;;;;5105482;27;20059;-82
2022/09/06 08:55:19;;;;;;;14.82;10.55;;;21.20;99.90;;;;;;5095290;27;20042;-83
2022/09/06 08:58:08;;;;;;;16.90;10.95;;;21.50;99.90;;;;;;5108935;27;20552;-83
2022/09/06 09:00:36;;;;;;;12.10;10.93;;;21.60;99.90;;;;;;5108385;27;20047;-83
2022/09/06 09:03:18;;;;;;;16.45;11.40;;;21.60;99.90;;;;;;5127415;27;20039;-83
2022/09/06 09:05:48;;;;;;;14.18;10.65;;;21.60;99.90;;;;;;5125712;27;20051;-82
2022/09/06 09:08:38;;;;;;;11.32;10.00;;;21.70;99.90;;;;;;5128684;27;20043;-82
2022/09/06 09:11:20;;;;;;;14.20;10.98;;;21.70;99.90;;;;;;5095947;28;20090;-83
2022/09/06 09:13:58;;;;;;;19.63;12.38;;;22.10;99.90;;;;;;5125171;27;20053;-82
2022/09/06 09:16:24;;;;;;;18.27;11.65;;;;;;;;;;5125441;27;20132;-82
2022/09/06 09:19:16;;;;;;;12.10;10.85;;;22.10;99.90;;;;;;5125588;27;20051;-82
2022/09/06 09:21:41;;;;;;;12.88;9.93;;;22.20;99.90;;;;;;5118213;27;20039;-82
2022/09/06 09:24:09;;;;;;;13.00;11.38;;;23.20;99.90;;;;;;5125346;27;20472;-82
2022/09/06 09:27:09;;;;;;;15.45;11.07;;;22.50;99.90;;;;;;5105158;28;20035;-82
2022/09/06 09:30:04;;;;;;;12.85;10.10;;;22.20;99.90;;;;;;5130610;27;20043;-82
2022/09/06 09:32:39;;;;;;;13.45;9.90;;;22.60;99.90;;;;;;5113025;27;20563;-82
2022/09/06 09:35:29;;;;;;;11.73;9.98;;;22.60;99.90;;;;;;5133098;27;20122;-83
2022/09/06 09:37:58;;;;;;;10.70;9.70;;;22.80;99.90;;;;;;5134067;27;20039;-83
2022/09/06 09:40:24;;;;;;;14.10;9.57;;;22.70;99.90;;;;;;5107937;27;20491;-83
2022/09/06 09:42:51;;;;;;;11.45;10.07;;;22.70;99.90;;;;;;5102373;27;20038;-83
2022/09/06 09:45:25;;;;;;;10.20;9.18;;;22.60;99.90;;;;;;5107704;27;20047;-83
2022/09/06 09:47:51;;;;;;;10.93;9.80;;;22.90;99.90;;;;;;5124351;27;20403;-82
2022/09/06 09:50:27;;;;;;;11.15;9.45;;;23.00;99.90;;;;;;5123775;27;20047;-82
2022/09/06 09:52:53;;;;;;;12.43;10.10;;;;;;;;;;5134368;27;20054;-79
2022/09/06 09:55:27;;;;;;;9.98;9.07;;;23.10;99.90;;;;;;5131080;27;20055;-79
2022/09/06 09:57:54;;;;;;;14.25;9.05;;;23.10;99.90;;;;;;5123021;27;20078;-80
2022/09/06 10:00:35;;;;;;;8.52;7.38;;;23.30;99.90;;;;;;5106090;27;20039;-79
2022/09/06 10:03:18;;;;;;;12.93;7.95;;;23.10;99.90;;;;;;5119193;27;20051;-80
2022/09/06 10:05:56;;;;;;;9.17;8.13;;;23.50;99.90;;;;;;5101724;27;20100;-80
2022/09/06 10:08:24;;;;;;;14.20;9.10;;;23.20;99.90;;;;;;5106837;27;20130;-79
2022/09/06 10:10:50;;;;;;;10.65;7.28;;;23.60;99.90;;;;;;5126832;27;20038;-81
2022/09/06 10:13:25;;;;;;;9.40;7.90;;;23.80;99.90;;;;;;5116082;27;20047;-81
2022/09/06 10:15:52;;;;;;;9.00;7.68;;;23.60;99.90;;;;;;5121280;27;20043;-82
2022/09/06 10:18:51;;;;;;;12.10;7.68;;;23.90;99.90;;;;;;5124891;27;20505;-83
2022/09/06 10:21:22;;;;;;;12.73;8.35;;;23.80;99.90;;;;;;5107028;27;20046;-79
2022/09/06 10:24:20;;;;;;;11.00;6.78;;;24.10;99.90;;;;;;5104698;27;20038;-82
2022/09/06 10:26:55;;;;;;;7.32;6.63;;;23.80;99.90;;;;;;5123173;27;20039;-82
2022/09/06 10:29:46;;;;;;;6.97;6.28;;;24.00;99.90;;;;;;5123275;27;20441;-82
2022/09/06 10:32:24;;;;;;;11.60;7.05;;;24.50;99.90;;;;;;5124328;27;20437;-82
2022/09/06 10:35:03;;;;;;;8.43;7.63;;;24.00;99.90;;;;;;5111745;27;20047;-81
2022/09/06 10:38:03;;;;;;;7.43;6.72;;;24.20;99.90;;;;;;5123219;27;20055;-80
2022/09/06 10:41:39;;;;;;;9.40;7.50;;;24.10;99.90;;;;;;5066970;28;20493;-81
2022/09/06 10:44:34;;;;;;;11.43;8.38;;;24.30;99.90;;;;;;4966807;28;20137;-81
2022/09/06 10:47:18;;;;;;;9.75;8.75;;;24.50;99.90;;;;;;4982393;28;20475;-82
2022/09/06 10:49:45;;;;;;;;;;;25.50;99.90;;;;;;4984875;28;20136;-81
2022/09/06 10:52:17;;;;;;;10.10;8.15;;;24.30;99.90;;;;;;4970050;28;19929;-81
2022/09/06 10:54:46;;;;;;;8.23;7.53;;;24.80;99.90;;;;;;4991740;28;20047;-81
2022/09/06 10:57:24;;;;;;;9.38;7.60;;;24.70;99.90;;;;;;4989189;28;20547;-80
2022/09/06 10:59:57;;;;;;;12.60;8.25;;;24.80;99.90;;;;;;4999742;28;20136;-79
2022/09/06 11:02:36;;;;;;;11.07;9.98;;;24.60;99.90;;;;;;4985402;28;20046;-82
2022/09/06 11:05:07;;;;;;;12.55;9.95;;;25.00;99.90;;;;;;4998943;28;20053;-81
2022/09/06 11:07:40;;;;;;;14.30;10.48;;;24.80;99.90;;;;;;4979604;28;20074;-80
2022/09/06 11:10:20;;;;;;;10.77;9.50;;;25.00;99.90;;;;;;4981700;28;20073;-79
2022/09/06 11:13:05;;;;;;;10.98;9.60;;;25.00;99.90;;;;;;4982282;28;20442;-79
2022/09/06 11:15:57;;;;;;;15.80;9.00;;;25.00;99.90;;;;;;4992311;28;20223;-79
2022/09/06 11:18:29;;;;;;;13.32;11.32;;;25.20;99.90;;;;;;4989377;28;20064;-81
2022/09/06 11:21:26;;;;;;;16.55;11.82;;;25.30;99.90;;;;;;5023943;28;20167;-80
2022/09/06 11:24:35;;;;;;;20.65;9.82;;;25.20;99.90;;;;;;5037092;28;20072;-81
2022/09/06 11:27:23;;;;;;;12.55;10.48;;;25.20;99.90;;;;;;5053514;28;20052;-81
2022/09/06 11:29:55;;;;;;;13.02;9.63;;;25.30;99.90;;;;;;5036820;28;20057;-81
2022/09/06 11:32:29;;;;;;;9.63;8.73;;;25.20;99.90;;;;;;5050855;28;20150;-81
2022/09/06 11:34:57;;;;;;;10.38;9.20;;;25.50;99.90;;;;;;5040675;28;20133;-80
2022/09/06 11:37:50;;;;;;;13.27;8.77;;;25.50;99.90;;;;;;5045847;28;20128;-81
2022/09/06 11:40:22;;;;;;;13.55;10.43;;;25.60;99.90;;;;;;5003545;28;20065;-82
2022/09/06 11:42:48;;;;;;;11.23;8.90;;;25.50;99.90;;;;;;5003654;28;20049;-82
2022/09/06 11:45:20;;;;;;;11.43;9.52;;;25.60;99.90;;;;;;5019234;28;20484;-80
2022/09/06 11:47:47;;;;;;;10.68;8.63;;;25.50;99.90;;;;;;4987645;28;20489;-80
2022/09/06 11:50:19;;;;;;;14.75;8.55;;;25.80;99.90;;;;;;5026217;28;20045;-80
2022/09/06 11:52:54;;;;;;;12.35;8.05;;;25.60;99.90;;;;;;5015733;28;20505;-80
2022/09/06 11:55:26;;;;;;;11.32;8.68;;;25.90;99.90;;;;;;5014595;28;20489;-81
2022/09/06 11:57:55;;;;;;;13.10;9.50;;;25.90;99.90;;;;;;5074469;28;20055;-81
2022/09/06 12:00:23;;;;;;;12.85;8.63;;;26.60;99.90;;;;;;5044443;28;20052;-81
2022/09/06 12:02:50;;;;;;;11.88;8.18;;;25.80;99.90;;;;;;5068909;28;20127;-80
2022/09/06 12:05:21;;;;;;;16.85;8.32;;;26.10;99.90;;;;;;5024894;28;20134;-81
2022/09/06 12:08:11;;;;;;;11.38;9.60;;;26.00;99.90;;;;;;5068146;28;20084;-81
2022/09/06 12:10:39;;;;;;;11.13;7.70;;;26.10;99.90;;;;;;5066680;28;20052;-81
2022/09/06 12:13:32;;;;;;;15.40;8.43;;;26.30;99.90;;;;;;5068489;28;20049;-80
2022/09/06 12:15:58;;;;;;;10.10;7.28;;;26.20;99.90;;;;;;5045363;28;20043;-80
2022/09/06 12:18:45;;;;;;;9.23;7.60;;;26.20;99.90;;;;;;5117782;27;20051;-80
2022/09/06 12:21:30;;;;;;;10.65;7.88;;;26.30;99.90;;;;;;5114010;27;20046;-82
2022/09/06 12:23:56;;;;;;;7.30;6.60;;;26.40;99.90;;;;;;5105417;28;20042;-82
2022/09/06 12:26:46;;;;;;;6.53;5.88;;;26.20;99.90;;;;;;5124636;27;20390;-82
2022/09/06 12:29:12;;;;;;;7.40;6.68;;;26.40;99.90;;;;;;5132333;27;20175;-82
2022/09/06 12:31:41;;;;;;;7.20;6.50;;;26.60;99.90;;;;;;5138883;27;20491;-82
2022/09/06 12:34:20;;;;;;;7.32;5.82;;;26.80;99.90;;;;;;5102911;28;20066;-82
2022/09/06 12:36:55;;;;;;;6.90;6.30;;;26.70;99.90;;;;;;5121640;28;20134;-82
2022/09/06 12:39:21;;;;;;;5.97;5.47;;;26.80;99.90;;;;;;5121559;28;20252;-82
2022/09/06 12:41:49;;;;;;;10.23;5.63;;;26.90;99.90;;;;;;5093275;28;20050;-82
2022/09/06 12:44:16;;;;;;;8.95;5.57;;;26.80;99.90;;;;;;5103587;28;20047;-82
2022/09/06 12:46:48;;;;;;;6.47;5.35;;;26.90;99.90;;;;;;5104154;28;20130;-81
2022/09/06 12:49:17;;;;;;;9.05;5.55;;;27.00;99.90;;;;;;5117139;28;20055;-81
2022/09/06 12:51:43;;;;;;;7.03;5.10;;;26.80;99.90;;;;;;5118585;28;20438;-81
2022/09/06 12:54:21;;;;;;;9.82;6.15;;;27.00;99.90;;;;;;5101955;28;20551;-81
2022/09/06 12:56:48;;;;;;;12.32;5.10;;;26.80;99.90;;;;;;5079243;28;20082;-81
2022/09/06 12:59:19;;;;;;;7.78;5.10;;;27.20;99.90;;;;;;5100433;28;20118;-82
2022/09/06 13:02:05;;;;;;;5.72;4.88;;;27.00;99.90;;;;;;5132589;27;20126;-81
2022/09/06 13:04:42;;;;;;;6.30;5.20;;;27.10;99.90;;;;;;5117838;28;20383;-81
2022/09/06 13:07:13;;;;;;;6.57;5.80;;;28.20;99.90;;;;;;5104341;28;20040;-82
2022/09/06 13:09:43;;;;;;;7.45;4.75;;;27.30;99.90;;;;;;5087660;28;20044;-81
2022/09/06 13:12:49;;;;;;;9.18;5.35;;;28.60;99.90;;;;;;5119756;28;20089;-81
2022/09/06 13:15:30;;;;;;;6.53;4.95;;;27.30;99.90;;;;;;5111202;28;20054;-81
2022/09/06 13:18:25;;;;;;;6.45;5.00;;;27.20;99.90;;;;;;5095575;28;20040;-81
2022/09/06 13:21:06;;;;;;;10.52;4.97;;;27.60;99.90;;;;;;5103196;28;20059;-80
2022/09/06 13:23:47;;;;;;;8.23;4.75;;;27.30;99.90;;;;;;5083392;28;20067;-81
2022/09/06 13:26:13;;;;;;;5.03;4.43;;;27.30;99.90;;;;;;5062634;28;20067;-81
2022/09/06 13:28:39;;;;;;;5.63;4.68;;;27.30;99.90;;;;;;5089645;28;20058;-81
2022/09/06 13:31:09;;;;;;;9.57;4.28;;;27.30;99.90;;;;;;5075128;28;20043;-80
2022/09/06 13:33:36;;;;;;;4.18;3.78;;;27.30;99.90;;;;;;5076038;28;20136;-81
2022/09/06 13:36:11;;;;;;;5.45;3.53;;;27.50;99.90;;;;;;5078056;28;20075;-81
2022/09/06 13:38:36;;;;;;;5.63;4.13;;;27.30;99.90;;;;;;5075757;28;20043;-81
2022/09/06 13:41:26;;;;;;;3.78;3.47;;;27.50;99.90;;;;;;5077647;28;20122;-80
2022/09/06 13:44:06;;;;;;;3.85;3.55;;;27.30;99.90;;;;;;5073499;28;20096;-81